createdAt,value
2019-05-06T00:00:58.207Z,7.00
2019-05-06T00:01:50.214Z,6.80
2019-05-06T00:02:50.189Z,7.10
2019-05-06T00:03:50.169Z,7.30
2019-05-06T00:04:50.152Z,6.70
2019-05-06T00:05:50.136Z,6.70
2019-05-06T00:06:50.108Z,6.90
2019-05-06T00:07:50.088Z,6.80
2019-05-06T00:08:50.065Z,7.00
2019-05-06T00:09:50.043Z,7.20
2019-05-06T00:10:50.021Z,7.00
2019-05-06T00:11:49.999Z,6.90
2019-05-06T00:12:49.977Z,7.00
2019-05-06T00:13:49.956Z,7.50
2019-05-06T00:14:49.937Z,6.50
2019-05-06T00:15:49.915Z,6.80
2019-05-06T00:16:49.894Z,7.00
2019-05-06T00:17:49.921Z,7.00
2019-05-06T00:18:49.860Z,7.10
2019-05-06T00:19:49.831Z,6.90
2019-05-06T00:20:49.808Z,6.90
2019-05-06T00:21:49.786Z,7.30
2019-05-06T00:22:49.771Z,7.50
2019-05-06T00:23:49.744Z,7.00
2019-05-06T00:24:49.725Z,7.20
2019-05-06T00:25:49.702Z,7.40
2019-05-06T00:26:49.689Z,7.70
2019-05-06T00:27:49.662Z,7.10
2019-05-06T00:28:49.639Z,7.70
2019-05-06T00:29:49.617Z,7.20
2019-05-06T00:30:49.602Z,6.90
2019-05-06T00:31:49.573Z,7.60
2019-05-06T00:32:49.561Z,6.90
2019-05-06T00:33:49.537Z,7.30
2019-05-06T00:34:49.511Z,7.10
2019-05-06T00:35:49.491Z,7.70
2019-05-06T00:36:49.469Z,7.20
2019-05-06T00:37:49.445Z,7.30
2019-05-06T00:38:49.427Z,7.60
2019-05-06T00:39:49.405Z,7.60
2019-05-06T00:40:49.385Z,7.40
2019-05-06T00:41:49.363Z,7.50
2019-05-06T00:42:49.337Z,7.10
2019-05-06T00:43:49.319Z,7.30
2019-05-06T00:44:49.297Z,7.20
2019-05-06T00:45:49.277Z,7.40
2019-05-06T00:46:49.253Z,7.10
2019-05-06T00:47:49.234Z,7.50
2019-05-06T00:48:49.213Z,7.40
2019-05-06T00:49:49.191Z,7.20
2019-05-06T00:50:49.169Z,7.30
2019-05-06T00:51:49.147Z,7.10
2019-05-06T00:52:49.126Z,7.40
2019-05-06T00:53:49.107Z,7.50
2019-05-06T00:54:49.084Z,7.60
2019-05-06T00:55:49.071Z,7.90
2019-05-06T00:56:49.044Z,7.60
2019-05-06T00:57:49.023Z,7.40
2019-05-06T00:58:49.001Z,7.40
2019-05-06T00:59:48.977Z,7.10
2019-05-06T01:00:48.957Z,7.90
2019-05-06T01:01:48.937Z,7.20
2019-05-06T01:02:48.910Z,7.30
2019-05-06T01:03:48.895Z,7.00
2019-05-06T01:04:48.872Z,7.50
2019-05-06T01:05:48.852Z,7.30
2019-05-06T01:06:48.827Z,7.70
2019-05-06T01:07:48.805Z,7.50
2019-05-06T01:08:48.787Z,7.90
2019-05-06T01:09:48.761Z,7.50
2019-05-06T01:10:48.748Z,7.50
2019-05-06T01:11:48.725Z,7.20
2019-05-06T01:12:48.703Z,7.00
2019-05-06T01:13:48.676Z,7.40
2019-05-06T01:14:48.657Z,6.80
2019-05-06T01:15:48.633Z,6.90
2019-05-06T01:16:48.619Z,6.70
2019-05-06T01:17:48.596Z,6.90
2019-05-06T01:18:48.572Z,7.60
2019-05-06T01:19:48.555Z,7.00
2019-05-06T01:20:48.532Z,7.10
2019-05-06T01:21:48.508Z,6.90
2019-05-06T01:22:48.488Z,7.10
2019-05-06T01:23:48.469Z,7.30
2019-05-06T01:24:48.442Z,6.70
2019-05-06T01:25:48.422Z,7.40
2019-05-06T01:26:48.400Z,7.10
2019-05-06T01:27:48.379Z,7.10
2019-05-06T01:28:48.361Z,7.70
2019-05-06T01:29:48.336Z,7.50
2019-05-06T01:30:48.316Z,7.70
2019-05-06T01:31:48.299Z,7.50
2019-05-06T01:32:48.276Z,7.40
2019-05-06T01:33:48.252Z,7.00
2019-05-06T01:34:48.230Z,7.30
2019-05-06T01:35:48.212Z,7.00
2019-05-06T01:36:48.192Z,7.10
2019-05-06T01:37:48.170Z,6.80
2019-05-06T01:38:48.144Z,7.00
2019-05-06T01:39:48.132Z,7.00
2019-05-06T01:40:48.106Z,6.90
2019-05-06T01:41:48.082Z,7.40
2019-05-06T01:42:48.062Z,7.20
2019-05-06T01:43:48.049Z,7.10
2019-05-06T01:44:48.019Z,7.40
2019-05-06T01:45:47.996Z,7.20
2019-05-06T01:46:47.981Z,7.00
2019-05-06T01:47:47.963Z,7.10
2019-05-06T01:48:47.935Z,7.10
2019-05-06T01:49:47.914Z,6.90
2019-05-06T01:50:47.894Z,6.90
2019-05-06T01:51:47.874Z,7.50
2019-05-06T01:52:47.861Z,6.80
2019-05-06T01:53:47.827Z,7.20
2019-05-06T01:54:47.816Z,6.50
2019-05-06T01:55:47.788Z,7.10
2019-05-06T01:56:47.768Z,7.50
2019-05-06T01:57:47.749Z,7.30
2019-05-06T01:58:47.726Z,7.00
2019-05-06T01:59:47.706Z,7.30
2019-05-06T02:00:47.683Z,7.60
2019-05-06T02:01:57.000Z,6.90
2019-05-06T02:02:47.644Z,7.00
2019-05-06T02:03:47.622Z,6.80
2019-05-06T02:04:47.600Z,7.00
2019-05-06T02:05:47.575Z,6.80
2019-05-06T02:06:47.560Z,6.70
2019-05-06T02:07:47.538Z,7.10
2019-05-06T02:08:47.518Z,7.10
2019-05-06T02:09:47.505Z,6.80
2019-05-06T02:10:47.472Z,6.80
2019-05-06T02:11:48.101Z,6.80
2019-05-06T02:12:47.435Z,6.90
2019-05-06T02:13:47.412Z,7.30
2019-05-06T02:14:47.390Z,6.50
2019-05-06T02:15:47.370Z,6.70
2019-05-06T02:16:47.348Z,6.80
2019-05-06T02:17:47.326Z,6.50
2019-05-06T02:18:47.307Z,6.50
2019-05-06T02:19:47.287Z,7.00
2019-05-06T02:20:47.265Z,6.70
2019-05-06T02:21:47.244Z,6.80
2019-05-06T02:22:47.221Z,7.50
2019-05-06T02:23:47.201Z,6.20
2019-05-06T02:24:47.184Z,6.50
2019-05-06T02:25:47.164Z,7.20
2019-05-06T02:26:47.137Z,6.40
2019-05-06T02:27:47.129Z,6.80
2019-05-06T02:28:47.097Z,6.80
2019-05-06T02:29:47.077Z,6.90
2019-05-06T02:30:47.061Z,7.10
2019-05-06T02:31:47.045Z,7.20
2019-05-06T02:32:47.020Z,7.30
2019-05-06T02:33:46.996Z,7.00
2019-05-06T02:34:46.992Z,7.20
2019-05-06T02:35:46.949Z,7.20
2019-05-06T02:36:46.945Z,6.80
2019-05-06T02:37:46.937Z,6.70
2019-05-06T02:38:51.427Z,7.20
2019-05-06T02:39:46.876Z,7.00
2019-05-06T02:40:46.852Z,6.90
2019-05-06T02:41:46.832Z,7.90
2019-05-06T02:42:46.814Z,7.10
2019-05-06T02:43:46.791Z,6.90
2019-05-06T02:44:46.765Z,6.80
2019-05-06T02:45:46.748Z,6.60
2019-05-06T02:46:46.724Z,7.00
2019-05-06T02:47:46.720Z,6.60
2019-05-06T02:48:46.686Z,6.20
2019-05-06T02:49:46.668Z,6.10
2019-05-06T02:50:46.677Z,6.20
2019-05-06T02:51:46.628Z,7.10
2019-05-06T02:52:46.603Z,6.90
2019-05-06T02:53:46.584Z,6.30
2019-05-06T02:54:46.556Z,7.00
2019-05-06T02:55:46.544Z,6.50
2019-05-06T02:56:46.521Z,6.50
2019-05-06T02:57:46.497Z,6.50
2019-05-06T02:58:46.482Z,6.60
2019-05-06T02:59:46.457Z,7.20
2019-05-06T03:00:46.434Z,7.30
2019-05-06T03:01:46.412Z,6.90
2019-05-06T03:02:48.231Z,7.30
2019-05-06T03:03:46.371Z,6.60
2019-05-06T03:04:46.350Z,7.00
2019-05-06T03:05:46.327Z,7.10
2019-05-06T03:06:46.307Z,7.20
2019-05-06T03:07:46.286Z,7.30
2019-05-06T03:08:46.270Z,7.30
2019-05-06T03:09:46.255Z,7.10
2019-05-06T03:10:46.225Z,7.00
2019-05-06T03:11:46.210Z,7.00
2019-05-06T03:12:46.183Z,6.70
2019-05-06T03:13:46.161Z,6.60
2019-05-06T03:14:46.145Z,7.10
2019-05-06T03:15:46.125Z,6.90
2019-05-06T03:16:46.099Z,6.60
2019-05-06T03:17:46.077Z,6.90
2019-05-06T03:19:24.198Z,5.30
2019-05-06T03:20:23.864Z,6.50
2019-05-06T03:21:24.652Z,6.90
2019-05-06T03:22:27.716Z,7.40
2019-05-06T03:23:23.997Z,6.50
2019-05-06T03:24:23.919Z,6.60
2019-05-06T03:25:24.154Z,7.10
2019-05-06T03:26:23.738Z,6.90
2019-05-06T03:27:23.722Z,6.50
2019-05-06T03:28:23.698Z,6.20
2019-05-06T03:29:25.321Z,6.50
2019-05-06T03:30:25.322Z,5.60
2019-05-06T03:31:26.118Z,6.50
2019-05-06T03:32:30.416Z,6.30
2019-05-06T03:33:54.978Z,6.90
2019-05-06T03:34:49.357Z,6.70
2019-05-06T03:35:36.465Z,6.90
2019-05-06T03:36:27.233Z,7.40
2019-05-06T03:37:24.024Z,6.20
2019-05-06T03:38:23.482Z,6.80
2019-05-06T03:39:23.461Z,6.60
2019-05-06T03:40:23.438Z,6.30
2019-05-06T03:41:26.702Z,6.60
2019-05-06T03:42:23.395Z,6.80
2019-05-06T03:43:23.519Z,7.20
2019-05-06T03:44:24.113Z,6.40
2019-05-06T03:45:23.761Z,6.30
2019-05-06T03:46:23.376Z,6.60
2019-05-06T03:47:23.614Z,6.40
2019-05-06T03:48:23.980Z,7.00
2019-05-06T03:49:23.913Z,6.30
2019-05-06T03:50:24.041Z,7.70
2019-05-06T03:51:23.470Z,7.50
2019-05-06T03:52:23.595Z,7.50
2019-05-06T03:53:23.356Z,7.90
2019-05-06T03:54:23.330Z,7.80
2019-05-06T03:55:23.705Z,7.50
2019-05-06T03:56:23.961Z,7.70
2019-05-06T03:57:23.446Z,8.40
2019-05-06T03:58:26.560Z,8.50
2019-05-06T03:59:23.377Z,8.00
2019-05-06T04:00:23.833Z,7.70
2019-05-06T04:01:24.027Z,7.50
2019-05-06T04:02:24.141Z,7.60
2019-05-06T04:03:42.020Z,7.90
2019-05-06T04:04:23.421Z,7.70
2019-05-06T04:05:23.802Z,7.60
2019-05-06T04:06:24.157Z,7.90
2019-05-06T04:07:23.573Z,7.80
2019-05-06T04:08:24.162Z,7.20
2019-05-06T04:09:23.987Z,8.00
2019-05-06T04:10:23.089Z,7.60
2019-05-06T04:11:23.053Z,8.20
2019-05-06T04:12:23.497Z,7.80
2019-05-06T04:13:23.281Z,8.10
2019-05-06T04:14:23.810Z,7.70
2019-05-06T04:15:22.999Z,7.70
2019-05-06T04:16:23.220Z,8.20
2019-05-06T04:17:23.780Z,9.00
2019-05-06T04:18:23.850Z,8.30
2019-05-06T04:19:23.707Z,8.50
2019-05-06T04:20:23.595Z,8.30
2019-05-06T04:21:23.976Z,8.00
2019-05-06T04:22:23.517Z,7.20
2019-05-06T04:23:23.351Z,8.90
2019-05-06T04:24:22.959Z,7.70
2019-05-06T04:25:23.333Z,7.60
2019-05-06T04:26:23.926Z,7.20
2019-05-06T04:27:22.899Z,7.50
2019-05-06T04:28:23.857Z,7.80
2019-05-06T04:29:24.091Z,8.10
2019-05-06T04:30:24.265Z,7.60
2019-05-06T04:31:22.905Z,8.10
2019-05-06T04:32:23.344Z,8.20
2019-05-06T04:33:23.730Z,9.20
2019-05-06T04:34:23.448Z,8.60
2019-05-06T04:35:22.971Z,7.40
2019-05-06T04:36:23.862Z,7.50
2019-05-06T04:37:24.239Z,7.80
2019-05-06T04:38:23.559Z,7.80
2019-05-06T04:39:23.361Z,7.20
2019-05-06T04:40:23.892Z,8.00
2019-05-06T04:41:23.185Z,8.00
2019-05-06T04:42:23.279Z,7.50
2019-05-06T04:43:26.309Z,7.60
2019-05-06T04:44:23.738Z,7.80
2019-05-06T04:45:23.646Z,7.90
2019-05-06T04:46:23.600Z,7.80
2019-05-06T04:47:24.161Z,7.50
2019-05-06T04:48:23.822Z,7.70
2019-05-06T04:49:23.702Z,7.70
2019-05-06T04:50:24.141Z,7.70
2019-05-06T04:51:24.748Z,8.20
2019-05-06T04:52:22.914Z,8.10
2019-05-06T04:53:23.785Z,8.70
2019-05-06T04:54:26.172Z,8.90
2019-05-06T04:55:22.621Z,8.40
2019-05-06T04:56:23.722Z,8.40
2019-05-06T04:57:23.819Z,8.30
2019-05-06T04:58:23.318Z,9.20
2019-05-06T04:59:23.254Z,8.10
2019-05-06T05:00:23.385Z,8.20
2019-05-06T05:01:23.173Z,7.70
2019-05-06T05:02:23.001Z,8.30
2019-05-06T05:03:22.766Z,9.00
2019-05-06T05:04:31.508Z,8.40
2019-05-06T05:05:23.174Z,7.70
2019-05-06T05:06:23.092Z,7.80
2019-05-06T05:07:22.503Z,8.40
2019-05-06T05:08:22.354Z,8.30
2019-05-06T05:09:23.066Z,7.60
2019-05-06T05:10:23.283Z,7.60
2019-05-06T05:11:22.617Z,7.70
2019-05-06T05:12:22.709Z,7.60
2019-05-06T05:13:23.180Z,7.90
2019-05-06T05:14:25.430Z,7.70
2019-05-06T05:15:22.812Z,8.40
2019-05-06T05:16:22.196Z,7.80
2019-05-06T05:17:22.439Z,7.90
2019-05-06T05:18:22.234Z,8.30
2019-05-06T05:19:23.040Z,7.80
2019-05-06T05:20:36.081Z,7.90
2019-05-06T05:21:22.898Z,8.20
2019-05-06T05:22:21.919Z,7.80
2019-05-06T05:23:22.875Z,7.80
2019-05-06T05:24:23.417Z,7.90
2019-05-06T05:25:22.178Z,8.20
2019-05-06T05:26:22.533Z,7.80
2019-05-06T05:27:21.901Z,7.90
2019-05-06T05:28:22.288Z,7.80
2019-05-06T05:29:22.886Z,7.70
2019-05-06T05:30:21.991Z,8.70
2019-05-06T05:31:22.899Z,8.00
2019-05-06T05:32:22.515Z,7.90
2019-05-06T05:33:22.483Z,8.10
2019-05-06T05:34:22.454Z,7.90
2019-05-06T05:35:22.717Z,8.40
2019-05-06T05:36:23.070Z,8.60
2019-05-06T05:37:22.820Z,7.80
2019-05-06T05:38:22.745Z,8.30
2019-05-06T05:39:22.279Z,8.60
2019-05-06T05:40:22.547Z,8.30
2019-05-06T05:41:20.874Z,7.70
2019-05-06T05:42:22.121Z,8.40
2019-05-06T05:43:22.801Z,7.90
2019-05-06T05:44:22.641Z,8.30
2019-05-06T05:45:22.145Z,7.90
2019-05-06T05:46:21.878Z,8.40
2019-05-06T05:47:22.078Z,8.20
2019-05-06T05:48:23.241Z,8.00
2019-05-06T05:49:22.540Z,8.10
2019-05-06T05:50:22.684Z,7.10
2019-05-06T05:51:22.266Z,7.90
2019-05-06T05:52:22.271Z,7.60
2019-05-06T05:53:22.433Z,7.70
2019-05-06T05:54:20.587Z,8.40
2019-05-06T05:55:21.901Z,13.20
2019-05-06T05:56:20.546Z,10.20
2019-05-06T05:57:22.550Z,9.00
2019-05-06T05:58:20.505Z,8.40
2019-05-06T05:59:22.969Z,8.30
2019-05-06T06:00:22.432Z,7.90
2019-05-06T06:01:23.114Z,8.00
2019-05-06T06:02:22.418Z,7.70
2019-05-06T06:03:22.059Z,7.90
2019-05-06T06:04:22.362Z,7.70
2019-05-06T06:05:21.877Z,7.70
2019-05-06T06:06:22.149Z,7.90
2019-05-06T06:07:20.324Z,8.20
2019-05-06T06:08:22.761Z,7.90
2019-05-06T06:09:22.246Z,7.80
2019-05-06T06:10:22.463Z,8.10
2019-05-06T06:11:20.230Z,7.80
2019-05-06T06:12:20.210Z,8.00
2019-05-06T06:13:22.152Z,8.20
2019-05-06T06:14:21.915Z,8.20
2019-05-06T06:15:22.309Z,7.90
2019-05-06T06:16:20.126Z,8.80
2019-05-06T06:17:20.108Z,8.60
2019-05-06T06:18:20.085Z,7.80
2019-05-06T06:19:22.051Z,8.00
2019-05-06T06:20:22.042Z,8.10
2019-05-06T06:21:27.071Z,7.70
2019-05-06T06:22:20.008Z,8.20
2019-05-06T06:23:19.979Z,7.60
2019-05-06T06:24:19.960Z,7.40
2019-05-06T06:25:23.355Z,7.90
2019-05-06T06:26:19.924Z,8.20
2019-05-06T06:27:22.231Z,7.10
2019-05-06T06:28:19.882Z,7.30
2019-05-06T06:29:19.866Z,7.30
2019-05-06T06:30:22.069Z,7.00
2019-05-06T06:31:19.823Z,7.00
2019-05-06T06:32:19.800Z,6.70
2019-05-06T06:33:22.166Z,6.50
2019-05-06T06:34:19.757Z,6.60
2019-05-06T06:35:19.739Z,6.50
2019-05-06T06:36:19.718Z,7.90
2019-05-06T06:37:19.724Z,6.90
2019-05-06T06:38:19.676Z,6.70
2019-05-06T06:39:19.660Z,6.90
2019-05-06T06:40:19.635Z,6.80
2019-05-06T06:41:19.618Z,7.00
2019-05-06T06:42:22.075Z,6.70
2019-05-06T06:43:19.576Z,6.80
2019-05-06T06:44:19.556Z,6.90
2019-05-06T06:45:19.535Z,6.50
2019-05-06T06:46:19.514Z,6.10
2019-05-06T06:47:19.500Z,6.00
2019-05-06T06:48:19.477Z,6.50
2019-05-06T06:49:19.454Z,6.10
2019-05-06T06:50:19.436Z,7.10
2019-05-06T06:51:19.416Z,6.60
2019-05-06T06:52:19.396Z,7.20
2019-05-06T06:53:19.374Z,7.40
2019-05-06T06:54:19.359Z,7.20
2019-05-06T06:55:19.336Z,6.80
2019-05-06T06:56:19.315Z,6.30
2019-05-06T06:57:19.299Z,9.50
2019-05-06T06:58:19.282Z,16.80
2019-05-06T06:59:19.265Z,16.50
2019-05-06T07:00:19.234Z,11.70
2019-05-06T07:01:19.218Z,7.60
2019-05-06T07:02:19.312Z,6.70
2019-05-06T07:03:19.177Z,6.80
2019-05-06T07:04:19.161Z,7.10
2019-05-06T07:05:25.516Z,19.50
2019-05-06T07:06:19.127Z,10.90
2019-05-06T07:07:19.109Z,7.60
2019-05-06T07:08:32.064Z,6.10
2019-05-06T07:09:19.066Z,7.00
2019-05-06T07:10:19.043Z,6.40
2019-05-06T07:11:19.027Z,6.20
2019-05-06T07:12:19.061Z,6.40
2019-05-06T07:13:18.987Z,5.80
2019-05-06T07:14:18.975Z,6.60
2019-05-06T07:15:18.952Z,5.40
2019-05-06T07:16:20.718Z,5.20
2019-05-06T07:17:18.996Z,6.00
2019-05-06T07:18:18.892Z,5.80
2019-05-06T07:19:18.882Z,5.70
2019-05-06T07:20:18.855Z,5.70
2019-05-06T07:21:18.839Z,6.20
2019-05-06T07:22:18.820Z,6.20
2019-05-06T07:23:18.805Z,5.50
2019-05-06T07:24:18.782Z,5.90
2019-05-06T07:25:18.773Z,5.50
2019-05-06T07:26:18.749Z,5.40
2019-05-06T07:27:18.729Z,5.60
2019-05-06T07:28:18.713Z,5.60
2019-05-06T07:29:23.450Z,5.50
2019-05-06T07:30:18.681Z,5.50
2019-05-06T07:31:22.789Z,5.70
2019-05-06T07:32:18.645Z,5.40
2019-05-06T07:33:18.632Z,5.80
2019-05-06T07:34:18.619Z,5.80
2019-05-06T07:35:18.601Z,5.70
2019-05-06T07:36:20.158Z,5.90
2019-05-06T07:37:18.565Z,5.20
2019-05-06T07:38:18.547Z,6.70
2019-05-06T07:39:18.542Z,6.80
2019-05-06T07:40:18.523Z,7.90
2019-05-06T07:41:18.522Z,10.00
2019-05-06T07:42:18.504Z,9.20
2019-05-06T07:43:18.476Z,8.90
2019-05-06T07:44:18.469Z,14.70
2019-05-06T07:45:18.449Z,11.00
2019-05-06T07:46:18.441Z,9.80
2019-05-06T07:47:18.425Z,7.90
2019-05-06T07:48:18.407Z,7.40
2019-05-06T07:49:18.398Z,5.30
2019-05-06T07:50:18.385Z,5.80
2019-05-06T07:51:18.390Z,4.80
2019-05-06T07:52:18.361Z,7.00
2019-05-06T07:53:18.352Z,6.90
2019-05-06T07:54:18.338Z,7.00
2019-05-06T07:55:18.330Z,5.80
2019-05-06T07:56:18.325Z,6.00
2019-05-06T07:57:18.310Z,6.60
2019-05-06T07:58:18.297Z,6.20
2019-05-06T07:59:18.285Z,6.30
2019-05-06T08:00:18.280Z,6.50
2019-05-06T08:01:18.271Z,6.90
2019-05-06T08:02:18.264Z,6.00
2019-05-06T08:03:18.252Z,5.10
2019-05-06T08:04:18.249Z,5.80
2019-05-06T08:05:18.238Z,4.90
2019-05-06T08:06:18.230Z,5.40
2019-05-06T08:07:18.220Z,5.70
2019-05-06T08:08:18.209Z,6.90
2019-05-06T08:09:18.203Z,9.20
2019-05-06T08:10:18.198Z,7.30
2019-05-06T08:11:18.186Z,8.40
2019-05-06T08:12:18.181Z,7.70
2019-05-06T08:13:18.177Z,5.30
2019-05-06T08:14:18.167Z,5.80
2019-05-06T08:15:18.180Z,6.00
2019-05-06T08:16:18.155Z,5.80
2019-05-06T08:17:18.145Z,5.40
2019-05-06T08:18:18.142Z,5.20
2019-05-06T08:19:18.132Z,5.50
2019-05-06T08:20:18.125Z,5.20
2019-05-06T08:21:18.119Z,5.40
2019-05-06T08:22:18.112Z,5.00
2019-05-06T08:23:18.105Z,5.20
2019-05-06T08:24:18.100Z,5.10
2019-05-06T08:25:18.091Z,5.10
2019-05-06T08:26:18.285Z,4.90
2019-05-06T08:27:18.078Z,5.50
2019-05-06T08:28:18.072Z,4.70
2019-05-06T08:29:18.064Z,5.00
2019-05-06T08:30:18.095Z,4.70
2019-05-06T08:31:18.050Z,4.70
2019-05-06T08:32:18.042Z,5.80
2019-05-06T08:33:18.045Z,5.40
2019-05-06T08:34:18.030Z,5.20
2019-05-06T08:35:18.022Z,4.60
2019-05-06T08:36:18.016Z,4.60
2019-05-06T08:37:18.010Z,5.10
2019-05-06T08:38:18.011Z,5.00
2019-05-06T08:39:17.996Z,4.80
2019-05-06T08:40:17.988Z,5.00
2019-05-06T08:41:17.982Z,4.80
2019-05-06T08:42:17.974Z,4.60
2019-05-06T08:43:17.970Z,4.70
2019-05-06T08:44:17.961Z,4.80
2019-05-06T08:45:17.956Z,4.60
2019-05-06T08:46:17.950Z,5.60
2019-05-06T08:47:17.938Z,4.90
2019-05-06T08:48:17.931Z,4.60
2019-05-06T08:49:17.928Z,5.00
2019-05-06T08:50:17.918Z,4.90
2019-05-06T08:51:17.910Z,4.80
2019-05-06T08:52:17.898Z,6.10
2019-05-06T08:53:17.897Z,5.90
2019-05-06T08:54:17.898Z,4.90
2019-05-06T08:55:17.882Z,5.20
2019-05-06T08:56:17.876Z,5.10
2019-05-06T08:57:17.867Z,4.70
2019-05-06T08:58:17.865Z,4.60
2019-05-06T08:59:17.860Z,4.80
2019-05-06T09:00:17.853Z,4.30
2019-05-06T09:01:17.844Z,4.80
2019-05-06T09:02:17.840Z,5.10
2019-05-06T09:03:17.839Z,5.40
2019-05-06T09:04:17.835Z,5.40
2019-05-06T09:05:17.821Z,5.10
2019-05-06T09:06:27.583Z,4.70
2019-05-06T09:07:17.808Z,6.00
2019-05-06T09:08:17.798Z,6.40
2019-05-06T09:09:17.790Z,5.00
2019-05-06T09:10:17.784Z,5.70
2019-05-06T09:11:17.777Z,5.80
2019-05-06T09:12:17.773Z,4.90
2019-05-06T09:13:17.776Z,4.70
2019-05-06T09:14:17.779Z,5.30
2019-05-06T09:15:17.757Z,4.90
2019-05-06T09:16:17.747Z,4.90
2019-05-06T09:17:17.743Z,4.80
2019-05-06T09:18:17.741Z,4.50
2019-05-06T09:19:17.732Z,4.60
2019-05-06T09:20:17.730Z,5.40
2019-05-06T09:21:17.727Z,5.40
2019-05-06T09:22:17.708Z,5.70
2019-05-06T09:23:17.706Z,4.90
2019-05-06T09:24:17.700Z,5.00
2019-05-06T09:25:17.690Z,4.80
2019-05-06T09:26:17.683Z,5.20
2019-05-06T09:27:17.677Z,4.90
2019-05-06T09:28:17.675Z,5.40
2019-05-06T09:29:17.659Z,5.80
2019-05-06T09:30:17.649Z,5.80
2019-05-06T09:31:17.645Z,5.10
2019-05-06T09:32:17.634Z,5.10
2019-05-06T09:33:17.625Z,5.10
2019-05-06T09:34:17.615Z,5.30
2019-05-06T09:35:17.606Z,4.90
2019-05-06T09:36:17.599Z,5.50
2019-05-06T09:37:17.586Z,5.20
2019-05-06T09:38:17.575Z,4.90
2019-05-06T09:39:17.567Z,5.40
2019-05-06T09:40:17.553Z,5.00
2019-05-06T09:41:17.549Z,5.10
2019-05-06T09:42:17.537Z,5.00
2019-05-06T09:43:17.529Z,5.30
2019-05-06T09:44:17.514Z,5.10
2019-05-06T09:45:17.507Z,4.80
2019-05-06T09:46:17.497Z,5.20
2019-05-06T09:47:17.484Z,4.60
2019-05-06T09:48:17.472Z,5.50
2019-05-06T09:49:17.471Z,5.50
2019-05-06T09:50:17.463Z,4.90
2019-05-06T09:51:17.441Z,6.10
2019-05-06T09:52:17.427Z,5.50
2019-05-06T09:53:17.419Z,5.90
2019-05-06T09:54:17.425Z,5.30
2019-05-06T09:55:17.404Z,4.60
2019-05-06T09:56:17.386Z,4.40
2019-05-06T09:57:17.385Z,4.80
2019-05-06T09:58:17.370Z,4.80
2019-05-06T09:59:17.353Z,4.50
2019-05-06T10:00:17.341Z,4.60
2019-05-06T10:01:17.332Z,4.20
2019-05-06T10:02:17.326Z,4.50
2019-05-06T10:03:17.316Z,4.10
2019-05-06T10:04:17.301Z,4.60
2019-05-06T10:05:17.286Z,4.40
2019-05-06T10:06:17.280Z,4.70
2019-05-06T10:07:17.263Z,4.50
2019-05-06T10:08:17.257Z,4.70
2019-05-06T10:09:17.247Z,4.70
2019-05-06T10:10:17.859Z,4.40
2019-05-06T10:11:17.223Z,4.60
2019-05-06T10:12:17.211Z,4.70
2019-05-06T10:13:17.198Z,5.00
2019-05-06T10:14:17.183Z,4.60
2019-05-06T10:15:17.176Z,4.90
2019-05-06T10:16:17.163Z,5.30
2019-05-06T10:17:17.154Z,4.90
2019-05-06T10:18:17.145Z,5.20
2019-05-06T10:19:17.134Z,5.00
2019-05-06T10:20:17.126Z,4.30
2019-05-06T10:21:17.112Z,4.60
2019-05-06T10:22:17.103Z,4.40
2019-05-06T10:23:17.094Z,4.60
2019-05-06T10:24:17.121Z,4.30
2019-05-06T10:25:17.076Z,3.90
2019-05-06T10:26:17.067Z,4.30
2019-05-06T10:27:17.058Z,4.30
2019-05-06T10:28:17.051Z,4.50
2019-05-06T10:29:17.040Z,4.50
2019-05-06T10:30:17.049Z,4.10
2019-05-06T10:31:17.024Z,4.70
2019-05-06T10:32:17.012Z,4.10
2019-05-06T10:33:17.007Z,4.40
2019-05-06T10:34:16.990Z,4.40
2019-05-06T10:35:16.985Z,4.60
2019-05-06T10:36:16.981Z,5.00
2019-05-06T10:37:19.354Z,4.80
2019-05-06T10:38:16.954Z,4.70
2019-05-06T10:39:16.950Z,4.70
2019-05-06T10:40:16.935Z,4.50
2019-05-06T10:41:16.928Z,4.80
2019-05-06T10:42:16.914Z,4.00
2019-05-06T10:43:16.908Z,4.80
2019-05-06T10:44:16.900Z,4.80
2019-05-06T10:45:16.892Z,4.60
2019-05-06T10:46:16.896Z,4.80
2019-05-06T10:47:16.878Z,4.50
2019-05-06T10:48:16.858Z,4.90
2019-05-06T10:49:16.852Z,4.70
2019-05-06T10:50:16.844Z,4.80
2019-05-06T10:51:17.236Z,4.60
2019-05-06T10:52:16.826Z,4.50
2019-05-06T10:53:16.868Z,5.00
2019-05-06T10:54:16.837Z,4.20
2019-05-06T10:55:16.802Z,4.40
2019-05-06T10:56:16.788Z,4.70
2019-05-06T10:57:16.778Z,4.70
2019-05-06T10:58:16.770Z,4.20
2019-05-06T10:59:16.761Z,4.60
2019-05-06T11:00:16.751Z,4.30
2019-05-06T11:01:16.748Z,4.30
2019-05-06T11:02:16.728Z,4.80
2019-05-06T11:03:16.726Z,4.70
2019-05-06T11:04:16.714Z,5.20
2019-05-06T11:05:16.698Z,4.90
2019-05-06T11:06:16.692Z,4.90
2019-05-06T11:07:27.577Z,5.10
2019-05-06T11:08:16.673Z,4.70
2019-05-06T11:09:16.672Z,4.60
2019-05-06T11:10:23.955Z,5.10
2019-05-06T11:11:31.336Z,4.80
2019-05-06T11:12:16.641Z,4.40
2019-05-06T11:13:16.636Z,4.80
2019-05-06T11:14:16.624Z,4.90
2019-05-06T11:15:16.617Z,4.60
2019-05-06T11:16:17.102Z,4.90
2019-05-06T11:17:16.624Z,4.50
2019-05-06T11:18:16.601Z,5.00
2019-05-06T11:19:16.578Z,4.80
2019-05-06T11:20:16.567Z,4.70
2019-05-06T11:21:16.567Z,5.50
2019-05-06T11:22:16.549Z,5.10
2019-05-06T11:23:16.546Z,5.00
2019-05-06T11:24:16.535Z,5.10
2019-05-06T11:25:16.525Z,4.40
2019-05-06T11:26:16.516Z,5.00
2019-05-06T11:27:28.088Z,4.60
2019-05-06T11:28:16.513Z,4.80
2019-05-06T11:29:16.504Z,5.00
2019-05-06T11:30:16.491Z,5.00
2019-05-06T11:31:16.491Z,5.00
2019-05-06T11:32:16.480Z,4.60
2019-05-06T11:33:16.472Z,4.40
2019-05-06T11:34:16.469Z,4.70
2019-05-06T11:35:16.465Z,4.20
2019-05-06T11:36:16.458Z,4.40
2019-05-06T11:37:16.455Z,4.60
2019-05-06T11:38:16.446Z,4.70
2019-05-06T11:39:16.442Z,4.40
2019-05-06T11:40:17.188Z,4.70
2019-05-06T11:41:16.425Z,4.80
2019-05-06T11:42:27.609Z,4.60
2019-05-06T11:43:16.411Z,4.60
2019-05-06T11:44:16.410Z,4.70
2019-05-06T11:45:16.400Z,4.80
2019-05-06T11:46:16.391Z,4.70
2019-05-06T11:47:16.392Z,4.60
2019-05-06T11:48:16.379Z,4.60
2019-05-06T11:49:16.369Z,4.40
2019-05-06T11:50:16.362Z,4.30
2019-05-06T11:51:16.362Z,4.60
2019-05-06T11:52:16.345Z,5.20
2019-05-06T11:53:16.335Z,4.90
2019-05-06T11:54:20.074Z,4.10
2019-05-06T11:55:27.833Z,4.50
2019-05-06T11:56:16.317Z,4.50
2019-05-06T11:57:16.303Z,4.00
2019-05-06T11:58:16.297Z,4.30
2019-05-06T11:59:16.289Z,4.20
2019-05-06T12:00:16.287Z,4.00
2019-05-06T12:01:16.284Z,3.80
2019-05-06T12:02:16.269Z,4.10
2019-05-06T12:03:16.265Z,4.20
2019-05-06T12:04:16.259Z,4.20
2019-05-06T12:05:16.257Z,4.20
2019-05-06T12:06:16.249Z,4.50
2019-05-06T12:07:16.435Z,3.90
2019-05-06T12:08:16.245Z,4.10
2019-05-06T12:09:17.223Z,3.90
2019-05-06T12:10:16.236Z,3.70
2019-05-06T12:11:16.229Z,4.00
2019-05-06T12:12:16.227Z,3.90
2019-05-06T12:13:16.229Z,3.80
2019-05-06T12:14:16.223Z,4.00
2019-05-06T12:15:16.217Z,3.70
2019-05-06T12:16:16.213Z,4.00
2019-05-06T12:17:16.211Z,3.60
2019-05-06T12:18:16.212Z,3.60
2019-05-06T12:19:16.209Z,3.30
2019-05-06T12:20:16.207Z,3.70
2019-05-06T12:21:19.068Z,3.90
2019-05-06T12:22:16.191Z,3.60
2019-05-06T12:23:16.195Z,3.70
2019-05-06T12:24:16.184Z,3.80
2019-05-06T12:25:16.185Z,3.70
2019-05-06T12:26:16.175Z,3.90
2019-05-06T12:27:16.181Z,3.90
2019-05-06T12:28:17.666Z,3.80
2019-05-06T12:29:16.166Z,4.10
2019-05-06T12:30:16.155Z,3.80
2019-05-06T12:31:16.149Z,4.20
2019-05-06T12:32:16.152Z,4.00
2019-05-06T12:33:16.138Z,3.90
2019-05-06T12:34:16.136Z,3.90
2019-05-06T12:35:16.128Z,4.00
2019-05-06T12:36:16.119Z,4.20
2019-05-06T12:37:16.111Z,4.00
2019-05-06T12:38:26.696Z,4.30
2019-05-06T12:39:18.527Z,3.70
2019-05-06T12:40:16.088Z,4.00
2019-05-06T12:41:16.086Z,3.90
2019-05-06T12:42:16.084Z,3.90
2019-05-06T12:43:16.064Z,3.90
2019-05-06T12:44:16.060Z,4.30
2019-05-06T12:45:16.055Z,3.90
2019-05-06T12:46:16.047Z,4.50
2019-05-06T12:47:16.039Z,4.20
2019-05-06T12:48:16.028Z,4.70
2019-05-06T12:49:16.023Z,4.80
2019-05-06T12:50:16.010Z,4.50
2019-05-06T12:51:16.012Z,4.50
2019-05-06T12:52:15.997Z,4.20
2019-05-06T12:53:15.994Z,4.30
2019-05-06T12:54:15.973Z,4.60
2019-05-06T12:55:21.528Z,4.10
2019-05-06T12:56:15.963Z,4.30
2019-05-06T12:57:15.950Z,4.30
2019-05-06T12:58:19.943Z,4.50
2019-05-06T12:59:15.929Z,4.20
2019-05-06T13:00:15.926Z,3.90
2019-05-06T13:01:15.915Z,4.00
2019-05-06T13:02:15.914Z,3.90
2019-05-06T13:03:15.902Z,4.30
2019-05-06T13:04:15.889Z,4.10
2019-05-06T13:05:15.876Z,4.00
2019-05-06T13:06:15.880Z,4.50
2019-05-06T13:07:15.860Z,4.10
2019-05-06T13:08:19.990Z,4.00
2019-05-06T13:09:15.908Z,4.10
2019-05-06T13:10:15.874Z,4.20
2019-05-06T13:11:15.830Z,4.50
2019-05-06T13:12:15.819Z,4.00
2019-05-06T13:13:15.804Z,4.40
2019-05-06T13:14:15.801Z,4.10
2019-05-06T13:15:15.793Z,3.90
2019-05-06T13:16:15.778Z,4.10
2019-05-06T13:17:15.766Z,4.10
2019-05-06T13:18:15.774Z,4.40
2019-05-06T13:19:16.492Z,4.70